sensor_id;sensor_type;location;lat;lon;timestamp;temperature;humidity
52459;DHT22;38372;52.902;6.024;2022-07-01T00:00:17;15.20;99.90
52459;DHT22;38372;52.902;6.024;2022-07-01T00:02:43;15.20;99.90
52459;DHT22;38372;52.902;6.024;2022-07-01T00:05:09;15.20;99.90
52459;DHT22;38372;52.902;6.024;2022-07-01T00:07:35;15.20;99.90
52459;DHT22;38372;52.902;6.024;2022-07-01T00:10:01;15.20;99.90
52459;DHT22;38372;52.902;6.024;2022-07-01T00:12:27;15.20;99.90
52459;DHT22;38372;52.902;6.024;2022-07-01T00:14:53;15.20;99.90
52459;DHT22;38372;52.902;6.024;2022-07-01T00:17:19;15.20;99.90
52459;DHT22;38372;52.902;6.024;2022-07-01T00:19:44;15.20;99.90
52459;DHT22;38372;52.902;6.024;2022-07-01T00:22:10;15.20;99.90
52459;DHT22;38372;52.902;6.024;2022-07-01T00:24:36;15.20;99.90
52459;DHT22;38372;52.902;6.024;2022-07-01T00:27:02;15.20;99.90
52459;DHT22;38372;52.902;6.024;2022-07-01T00:29:30;15.20;99.90
52459;DHT22;38372;52.902;6.024;2022-07-01T00:31:58;15.20;99.90
52459;DHT22;38372;52.902;6.024;2022-07-01T00:34:24;15.20;99.90
52459;DHT22;38372;52.902;6.024;2022-07-01T00:36:50;15.20;99.90
52459;DHT22;38372;52.902;6.024;2022-07-01T00:39:16;15.20;99.90
52459;DHT22;38372;52.902;6.024;2022-07-01T00:41:42;15.20;99.90
52459;DHT22;38372;52.902;6.024;2022-07-01T00:44:20;15.20;99.90
52459;DHT22;38372;52.902;6.024;2022-07-01T00:46:50;15.20;99.90
52459;DHT22;38372;52.902;6.024;2022-07-01T00:49:16;15.20;99.90
52459;DHT22;38372;52.902;6.024;2022-07-01T00:51:43;15.20;99.90
52459;DHT22;38372;52.902;6.024;2022-07-01T00:54:10;15.20;99.90
52459;DHT22;38372;52.902;6.024;2022-07-01T00:56:36;15.30;99.90
52459;DHT22;38372;52.902;6.024;2022-07-01T00:59:02;15.20;99.90
52459;DHT22;38372;52.902;6.024;2022-07-01T01:01:28;15.20;99.90
52459;DHT22;38372;52.902;6.024;2022-07-01T01:03:54;15.20;99.90
52459;DHT22;38372;52.902;6.024;2022-07-01T01:06:20;15.20;99.90
52459;DHT22;38372;52.902;6.024;2022-07-01T01:08:46;15.10;99.90
52459;DHT22;38372;52.902;6.024;2022-07-01T01:11:12;15.10;99.90
52459;DHT22;38372;52.902;6.024;2022-07-01T01:13:39;15.10;99.90
52459;DHT22;38372;52.902;6.024;2022-07-01T01:16:05;15.10;99.90
52459;DHT22;38372;52.902;6.024;2022-07-01T01:18:31;15.10;99.90
52459;DHT22;38372;52.902;6.024;2022-07-01T01:20:56;15.10;99.90
52459;DHT22;38372;52.902;6.024;2022-07-01T01:23:22;15.00;99.90
52459;DHT22;38372;52.902;6.024;2022-07-01T01:25:48;15.00;99.90
52459;DHT22;38372;52.902;6.024;2022-07-01T01:28:14;15.00;99.90
52459;DHT22;38372;52.902;6.024;2022-07-01T01:30:40;15.00;99.90
52459;DHT22;38372;52.902;6.024;2022-07-01T01:33:06;15.00;99.90
52459;DHT22;38372;52.902;6.024;2022-07-01T01:35:37;15.00;99.90
52459;DHT22;38372;52.902;6.024;2022-07-01T01:38:03;15.00;99.90
52459;DHT22;38372;52.902;6.024;2022-07-01T01:40:29;15.00;99.90
52459;DHT22;38372;52.902;6.024;2022-07-01T01:42:55;15.00;99.90
52459;DHT22;38372;52.902;6.024;2022-07-01T01:45:21;14.90;99.90
52459;DHT22;38372;52.902;6.024;2022-07-01T01:47:47;14.90;99.90
52459;DHT22;38372;52.902;6.024;2022-07-01T01:50:15;14.90;99.90
52459;DHT22;38372;52.902;6.024;2022-07-01T01:52:42;14.90;99.90
52459;DHT22;38372;52.902;6.024;2022-07-01T01:55:09;14.80;99.90
52459;DHT22;38372;52.902;6.024;2022-07-01T01:57:35;14.80;99.90
52459;DHT22;38372;52.902;6.024;2022-07-01T02:00:01;14.80;99.90
52459;DHT22;38372;52.902;6.024;2022-07-01T02:02:27;14.80;99.90
52459;DHT22;38372;52.902;6.024;2022-07-01T02:04:53;14.80;99.90
52459;DHT22;38372;52.902;6.024;2022-07-01T02:07:19;14.70;99.90
52459;DHT22;38372;52.902;6.024;2022-07-01T02:09:45;14.70;99.90
52459;DHT22;38372;52.902;6.024;2022-07-01T02:12:10;14.70;99.90
52459;DHT22;38372;52.902;6.024;2022-07-01T02:14:36;14.70;99.90
52459;DHT22;38372;52.902;6.024;2022-07-01T02:17:02;14.70;99.90
52459;DHT22;38372;52.902;6.024;2022-07-01T02:19:28;14.70;99.90
52459;DHT22;38372;52.902;6.024;2022-07-01T02:21:54;14.70;99.90
52459;DHT22;38372;52.902;6.024;2022-07-01T02:24:20;14.70;99.90
52459;DHT22;38372;52.902;6.024;2022-07-01T02:26:46;14.70;99.90
52459;DHT22;38372;52.902;6.024;2022-07-01T02:29:14;14.70;99.90
52459;DHT22;38372;52.902;6.024;2022-07-01T02:31:39;14.80;99.90
52459;DHT22;38372;52.902;6.024;2022-07-01T02:34:05;14.70;99.90
52459;DHT22;38372;52.902;6.024;2022-07-01T02:36:31;14.70;99.90
52459;DHT22;38372;52.902;6.024;2022-07-01T02:38:57;14.70;99.90
52459;DHT22;38372;52.902;6.024;2022-07-01T02:41:23;14.70;99.90
52459;DHT22;38372;52.902;6.024;2022-07-01T02:43:48;14.70;99.90
52459;DHT22;38372;52.902;6.024;2022-07-01T02:46:14;14.70;99.90
52459;DHT22;38372;52.902;6.024;2022-07-01T02:48:40;14.60;99.90
52459;DHT22;38372;52.902;6.024;2022-07-01T03:03:03;14.60;99.90
52459;DHT22;38372;52.902;6.024;2022-07-01T03:05:30;14.80;99.90
52459;DHT22;38372;52.902;6.024;2022-07-01T03:07:56;14.70;99.90
52459;DHT22;38372;52.902;6.024;2022-07-01T03:10:23;14.70;99.90
52459;DHT22;38372;52.902;6.024;2022-07-01T03:12:58;14.70;99.90
52459;DHT22;38372;52.902;6.024;2022-07-01T03:15:25;14.60;99.90
52459;DHT22;38372;52.902;6.024;2022-07-01T03:17:57;14.60;99.90
52459;DHT22;38372;52.902;6.024;2022-07-01T03:20:34;14.60;99.90
52459;DHT22;38372;52.902;6.024;2022-07-01T03:23:06;14.60;99.90
52459;DHT22;38372;52.902;6.024;2022-07-01T03:25:38;14.60;99.90
52459;DHT22;38372;52.902;6.024;2022-07-01T03:28:04;14.60;99.90
52459;DHT22;38372;52.902;6.024;2022-07-01T03:30:40;14.60;99.90
52459;DHT22;38372;52.902;6.024;2022-07-01T03:33:09;14.50;99.90
52459;DHT22;38372;52.902;6.024;2022-07-01T03:35:51;14.50;99.90
52459;DHT22;38372;52.902;6.024;2022-07-01T03:38:20;14.50;99.90
52459;DHT22;38372;52.902;6.024;2022-07-01T03:40:46;14.50;99.90
52459;DHT22;38372;52.902;6.024;2022-07-01T03:43:25;14.40;99.90
52459;DHT22;38372;52.902;6.024;2022-07-01T03:46:05;14.40;99.90
52459;DHT22;38372;52.902;6.024;2022-07-01T03:48:32;14.40;99.90
52459;DHT22;38372;52.902;6.024;2022-07-01T03:51:05;14.40;99.90
52459;DHT22;38372;52.902;6.024;2022-07-01T03:53:37;14.40;99.90
52459;DHT22;38372;52.902;6.024;2022-07-01T03:56:34;14.30;99.90
52459;DHT22;38372;52.902;6.024;2022-07-01T03:59:07;14.40;99.90
52459;DHT22;38372;52.902;6.024;2022-07-01T04:01:38;14.40;99.90
52459;DHT22;38372;52.902;6.024;2022-07-01T04:04:16;14.40;99.90
52459;DHT22;38372;52.902;6.024;2022-07-01T04:06:47;14.40;99.90
52459;DHT22;38372;52.902;6.024;2022-07-01T04:09:17;14.30;99.90
52459;DHT22;38372;52.902;6.024;2022-07-01T04:11:52;14.30;99.90
52459;DHT22;38372;52.902;6.024;2022-07-01T04:14:26;14.30;99.90
52459;DHT22;38372;52.902;6.024;2022-07-01T04:17:01;14.30;99.90
52459;DHT22;38372;52.902;6.024;2022-07-01T04:19:31;14.30;99.90
52459;DHT22;38372;52.902;6.024;2022-07-01T04:21:57;14.40;99.90
52459;DHT22;38372;52.902;6.024;2022-07-01T04:24:47;14.40;99.90
52459;DHT22;38372;52.902;6.024;2022-07-01T04:27:22;14.40;99.90
52459;DHT22;38372;52.902;6.024;2022-07-01T04:29:49;14.40;99.90
52459;DHT22;38372;52.902;6.024;2022-07-01T04:32:15;14.30;99.90
52459;DHT22;38372;52.902;6.024;2022-07-01T04:34:44;14.30;99.90
52459;DHT22;38372;52.902;6.024;2022-07-01T04:37:13;14.30;99.90
52459;DHT22;38372;52.902;6.024;2022-07-01T04:39:42;14.30;99.90
52459;DHT22;38372;52.902;6.024;2022-07-01T04:42:17;14.30;99.90
52459;DHT22;38372;52.902;6.024;2022-07-01T04:44:48;14.30;99.90
52459;DHT22;38372;52.902;6.024;2022-07-01T04:47:15;14.40;99.90
52459;DHT22;38372;52.902;6.024;2022-07-01T04:50:00;14.40;99.90
52459;DHT22;38372;52.902;6.024;2022-07-01T04:52:39;14.40;99.90
52459;DHT22;38372;52.902;6.024;2022-07-01T04:55:08;14.40;99.90
52459;DHT22;38372;52.902;6.024;2022-07-01T04:57:34;14.40;99.90
52459;DHT22;38372;52.902;6.024;2022-07-01T05:00:09;14.50;99.90
52459;DHT22;38372;52.902;6.024;2022-07-01T05:02:38;14.40;99.90
52459;DHT22;38372;52.902;6.024;2022-07-01T05:05:09;14.40;99.90
52459;DHT22;38372;52.902;6.024;2022-07-01T05:07:43;14.40;99.90
52459;DHT22;38372;52.902;6.024;2022-07-01T05:10:12;14.50;99.90
52459;DHT22;38372;52.902;6.024;2022-07-01T05:12:45;14.50;99.90
52459;DHT22;38372;52.902;6.024;2022-07-01T05:15:20;14.50;99.90
52459;DHT22;38372;52.902;6.024;2022-07-01T05:17:46;14.50;99.90
52459;DHT22;38372;52.902;6.024;2022-07-01T05:20:36;14.50;99.90
52459;DHT22;38372;52.902;6.024;2022-07-01T05:23:21;14.40;99.90
52459;DHT22;38372;52.902;6.024;2022-07-01T05:25:53;14.50;99.90
52459;DHT22;38372;52.902;6.024;2022-07-01T05:28:26;14.40;99.90
52459;DHT22;38372;52.902;6.024;2022-07-01T05:30:55;14.50;99.90
52459;DHT22;38372;52.902;6.024;2022-07-01T05:33:21;14.50;99.90
52459;DHT22;38372;52.902;6.024;2022-07-01T05:35:52;14.50;99.90
52459;DHT22;38372;52.902;6.024;2022-07-01T05:38:19;14.50;99.90
52459;DHT22;38372;52.902;6.024;2022-07-01T05:40:51;14.60;99.90
52459;DHT22;38372;52.902;6.024;2022-07-01T05:43:21;14.60;99.90
52459;DHT22;38372;52.902;6.024;2022-07-01T05:45:50;14.60;99.90
52459;DHT22;38372;52.902;6.024;2022-07-01T05:48:22;14.60;99.90
52459;DHT22;38372;52.902;6.024;2022-07-01T05:51:00;14.60;99.90
52459;DHT22;38372;52.902;6.024;2022-07-01T05:53:29;14.60;99.90
52459;DHT22;38372;52.902;6.024;2022-07-01T05:55:58;14.60;99.90
52459;DHT22;38372;52.902;6.024;2022-07-01T05:58:27;14.60;99.90
52459;DHT22;38372;52.902;6.024;2022-07-01T06:00:53;14.60;99.90
52459;DHT22;38372;52.902;6.024;2022-07-01T06:03:19;14.60;99.90
52459;DHT22;38372;52.902;6.024;2022-07-01T06:05:45;14.70;99.90
52459;DHT22;38372;52.902;6.024;2022-07-01T06:08:10;14.70;99.90
52459;DHT22;38372;52.902;6.024;2022-07-01T06:10:36;14.70;99.90
52459;DHT22;38372;52.902;6.024;2022-07-01T06:13:04;14.70;99.90
52459;DHT22;38372;52.902;6.024;2022-07-01T06:15:30;14.70;99.90
52459;DHT22;38372;52.902;6.024;2022-07-01T06:17:56;14.70;99.90
52459;DHT22;38372;52.902;6.024;2022-07-01T06:20:23;14.70;99.90
52459;DHT22;38372;52.902;6.024;2022-07-01T06:22:48;14.70;99.90
52459;DHT22;38372;52.902;6.024;2022-07-01T06:25:14;14.70;99.90
52459;DHT22;38372;52.902;6.024;2022-07-01T06:27:42;14.70;99.90
52459;DHT22;38372;52.902;6.024;2022-07-01T06:30:10;14.70;99.90
52459;DHT22;38372;52.902;6.024;2022-07-01T06:32:36;14.80;99.90
52459;DHT22;38372;52.902;6.024;2022-07-01T06:35:03;14.80;99.90
52459;DHT22;38372;52.902;6.024;2022-07-01T06:37:29;14.80;99.90
52459;DHT22;38372;52.902;6.024;2022-07-01T06:39:58;14.90;99.90
52459;DHT22;38372;52.902;6.024;2022-07-01T06:42:24;14.80;99.90
52459;DHT22;38372;52.902;6.024;2022-07-01T06:44:50;14.90;99.90
52459;DHT22;38372;52.902;6.024;2022-07-01T06:47:15;14.90;99.90
52459;DHT22;38372;52.902;6.024;2022-07-01T06:49:43;14.90;99.90
52459;DHT22;38372;52.902;6.024;2022-07-01T06:52:09;14.90;99.90
52459;DHT22;38372;52.902;6.024;2022-07-01T06:54:34;15.00;99.90
52459;DHT22;38372;52.902;6.024;2022-07-01T06:57:04;15.10;99.90
52459;DHT22;38372;52.902;6.024;2022-07-01T06:59:30;15.20;99.90
52459;DHT22;38372;52.902;6.024;2022-07-01T07:01:56;15.20;99.90
52459;DHT22;38372;52.902;6.024;2022-07-01T07:04:22;15.30;99.90
52459;DHT22;38372;52.902;6.024;2022-07-01T07:06:47;15.40;99.90
52459;DHT22;38372;52.902;6.024;2022-07-01T07:09:13;15.40;99.90
52459;DHT22;38372;52.902;6.024;2022-07-01T07:11:39;15.40;99.90
52459;DHT22;38372;52.902;6.024;2022-07-01T07:14:05;15.40;99.90
52459;DHT22;38372;52.902;6.024;2022-07-01T07:16:31;15.50;99.90
52459;DHT22;38372;52.902;6.024;2022-07-01T07:18:56;15.50;99.90
52459;DHT22;38372;52.902;6.024;2022-07-01T07:21:22;15.60;99.90
52459;DHT22;38372;52.902;6.024;2022-07-01T07:23:48;15.70;99.90
52459;DHT22;38372;52.902;6.024;2022-07-01T07:26:14;15.80;99.90
52459;DHT22;38372;52.902;6.024;2022-07-01T07:28:40;15.80;99.90
52459;DHT22;38372;52.902;6.024;2022-07-01T07:31:06;15.90;99.90
52459;DHT22;38372;52.902;6.024;2022-07-01T07:33:31;16.00;99.90
52459;DHT22;38372;52.902;6.024;2022-07-01T07:35:57;16.10;99.90
52459;DHT22;38372;52.902;6.024;2022-07-01T07:38:23;16.20;99.90
52459;DHT22;38372;52.902;6.024;2022-07-01T07:40:49;16.30;99.90
52459;DHT22;38372;52.902;6.024;2022-07-01T07:43:15;16.50;99.90
52459;DHT22;38372;52.902;6.024;2022-07-01T07:45:41;16.80;99.90
52459;DHT22;38372;52.902;6.024;2022-07-01T07:48:06;17.10;99.90
52459;DHT22;38372;52.902;6.024;2022-07-01T07:50:34;17.50;99.90
52459;DHT22;38372;52.902;6.024;2022-07-01T07:53:00;17.80;99.90
52459;DHT22;38372;52.902;6.024;2022-07-01T07:55:26;18.10;99.90
52459;DHT22;38372;52.902;6.024;2022-07-01T07:57:53;18.30;99.90
52459;DHT22;38372;52.902;6.024;2022-07-01T08:00:19;18.40;99.90
52459;DHT22;38372;52.902;6.024;2022-07-01T08:02:45;18.30;99.90
52459;DHT22;38372;52.902;6.024;2022-07-01T08:05:12;18.30;99.90
52459;DHT22;38372;52.902;6.024;2022-07-01T08:07:39;18.20;99.90
52459;DHT22;38372;52.902;6.024;2022-07-01T08:10:07;18.20;99.90
52459;DHT22;38372;52.902;6.024;2022-07-01T08:12:34;18.20;99.90
52459;DHT22;38372;52.902;6.024;2022-07-01T08:15:00;18.30;99.90
52459;DHT22;38372;52.902;6.024;2022-07-01T08:17:26;18.40;99.90
52459;DHT22;38372;52.902;6.024;2022-07-01T08:19:52;18.60;99.90
52459;DHT22;38372;52.902;6.024;2022-07-01T08:22:18;18.70;99.90
52459;DHT22;38372;52.902;6.024;2022-07-01T08:24:45;18.60;99.90
52459;DHT22;38372;52.902;6.024;2022-07-01T08:27:11;18.60;99.90
52459;DHT22;38372;52.902;6.024;2022-07-01T08:29:38;18.60;99.90
52459;DHT22;38372;52.902;6.024;2022-07-01T08:32:05;18.60;99.90
52459;DHT22;38372;52.902;6.024;2022-07-01T08:34:31;18.60;99.90
52459;DHT22;38372;52.902;6.024;2022-07-01T08:36:57;18.70;99.90
52459;DHT22;38372;52.902;6.024;2022-07-01T08:39:23;18.80;99.90
52459;DHT22;38372;52.902;6.024;2022-07-01T08:41:49;18.80;99.90
52459;DHT22;38372;52.902;6.024;2022-07-01T08:44:15;18.90;99.90
52459;DHT22;38372;52.902;6.024;2022-07-01T08:46:41;19.10;99.90
52459;DHT22;38372;52.902;6.024;2022-07-01T08:49:07;19.60;99.90
52459;DHT22;38372;52.902;6.024;2022-07-01T08:51:33;20.00;99.90
52459;DHT22;38372;52.902;6.024;2022-07-01T08:53:59;20.40;99.90
52459;DHT22;38372;52.902;6.024;2022-07-01T08:56:25;20.30;99.90
52459;DHT22;38372;52.902;6.024;2022-07-01T08:59:25;20.00;99.90
52459;DHT22;38372;52.902;6.024;2022-07-01T09:01:56;19.70;99.90
52459;DHT22;38372;52.902;6.024;2022-07-01T09:04:22;19.80;99.90
52459;DHT22;38372;52.902;6.024;2022-07-01T09:06:48;19.70;99.90
52459;DHT22;38372;52.902;6.024;2022-07-01T09:09:18;19.80;99.90
52459;DHT22;38372;52.902;6.024;2022-07-01T09:11:51;19.90;99.90
52459;DHT22;38372;52.902;6.024;2022-07-01T09:14:25;20.30;99.90
52459;DHT22;38372;52.902;6.024;2022-07-01T09:16:56;20.70;99.90
52459;DHT22;38372;52.902;6.024;2022-07-01T09:19:25;20.80;99.90
52459;DHT22;38372;52.902;6.024;2022-07-01T09:21:54;20.90;99.90
52459;DHT22;38372;52.902;6.024;2022-07-01T09:24:27;20.90;99.90
52459;DHT22;38372;52.902;6.024;2022-07-01T09:27:14;20.60;99.90
52459;DHT22;38372;52.902;6.024;2022-07-01T09:29:52;20.00;99.90
52459;DHT22;38372;52.902;6.024;2022-07-01T09:32:21;19.50;99.90
52459;DHT22;38372;52.902;6.024;2022-07-01T09:34:51;19.40;99.90
52459;DHT22;38372;52.902;6.024;2022-07-01T09:37:22;19.40;99.90
52459;DHT22;38372;52.902;6.024;2022-07-01T09:39:50;19.70;99.90
52459;DHT22;38372;52.902;6.024;2022-07-01T09:42:17;20.20;99.90
52459;DHT22;38372;52.902;6.024;2022-07-01T09:44:59;20.60;99.90
52459;DHT22;38372;52.902;6.024;2022-07-01T09:47:26;20.60;99.90
52459;DHT22;38372;52.902;6.024;2022-07-01T09:49:54;20.60;99.90
52459;DHT22;38372;52.902;6.024;2022-07-01T09:52:21;20.80;99.90
52459;DHT22;38372;52.902;6.024;2022-07-01T09:54:49;21.20;99.90
52459;DHT22;38372;52.902;6.024;2022-07-01T09:57:16;21.50;99.90
52459;DHT22;38372;52.902;6.024;2022-07-01T09:59:42;21.70;99.90
52459;DHT22;38372;52.902;6.024;2022-07-01T10:02:09;22.00;99.90
52459;DHT22;38372;52.902;6.024;2022-07-01T10:04:53;22.20;99.90
52459;DHT22;38372;52.902;6.024;2022-07-01T10:13:00;22.40;99.90
52459;DHT22;38372;52.902;6.024;2022-07-01T10:15:28;22.50;99.90
52459;DHT22;38372;52.902;6.024;2022-07-01T10:17:54;22.80;99.90
52459;DHT22;38372;52.902;6.024;2022-07-01T10:20:26;22.70;99.90
52459;DHT22;38372;52.902;6.024;2022-07-01T10:23:04;22.50;99.90
52459;DHT22;38372;52.902;6.024;2022-07-01T10:28:17;22.40;99.90
52459;DHT22;38372;52.902;6.024;2022-07-01T10:36:24;22.10;99.90
52459;DHT22;38372;52.902;6.024;2022-07-01T10:41:31;21.70;99.90
52459;DHT22;38372;52.902;6.024;2022-07-01T10:43:58;21.30;99.90
52459;DHT22;38372;52.902;6.024;2022-07-01T10:46:51;21.20;99.90
52459;DHT22;38372;52.902;6.024;2022-07-01T10:52:12;21.10;99.90
52459;DHT22;38372;52.902;6.024;2022-07-01T10:54:44;20.90;99.90
52459;DHT22;38372;52.902;6.024;2022-07-01T10:59:50;20.60;99.90
52459;DHT22;38372;52.902;6.024;2022-07-01T11:02:23;20.80;99.90
52459;DHT22;38372;52.902;6.024;2022-07-01T11:04:52;20.90;99.90
52459;DHT22;38372;52.902;6.024;2022-07-01T11:07:19;20.80;99.90
52459;DHT22;38372;52.902;6.024;2022-07-01T11:09:45;20.80;99.90
52459;DHT22;38372;52.902;6.024;2022-07-01T11:12:14;21.10;99.90
52459;DHT22;38372;52.902;6.024;2022-07-01T11:14:41;21.50;99.90
52459;DHT22;38372;52.902;6.024;2022-07-01T11:17:08;21.70;99.90
52459;DHT22;38372;52.902;6.024;2022-07-01T11:19:34;21.90;99.90
52459;DHT22;38372;52.902;6.024;2022-07-01T11:22:00;22.10;99.90
52459;DHT22;38372;52.902;6.024;2022-07-01T11:24:26;22.20;99.90
52459;DHT22;38372;52.902;6.024;2022-07-01T11:27:00;22.10;99.90
52459;DHT22;38372;52.902;6.024;2022-07-01T11:29:30;21.90;99.90
52459;DHT22;38372;52.902;6.024;2022-07-01T11:31:56;21.70;99.90
52459;DHT22;38372;52.902;6.024;2022-07-01T11:34:22;21.70;99.90
52459;DHT22;38372;52.902;6.024;2022-07-01T11:36:48;21.60;99.90
52459;DHT22;38372;52.902;6.024;2022-07-01T11:39:33;21.50;99.90
52459;DHT22;38372;52.902;6.024;2022-07-01T11:42:05;21.40;99.90
52459;DHT22;38372;52.902;6.024;2022-07-01T11:44:40;21.30;99.90
52459;DHT22;38372;52.902;6.024;2022-07-01T11:47:24;21.20;99.90
52459;DHT22;38372;52.902;6.024;2022-07-01T11:49:50;21.20;99.90
52459;DHT22;38372;52.902;6.024;2022-07-01T11:52:17;21.30;99.90
52459;DHT22;38372;52.902;6.024;2022-07-01T11:54:49;21.30;99.90
52459;DHT22;38372;52.902;6.024;2022-07-01T11:57:17;21.40;99.90
52459;DHT22;38372;52.902;6.024;2022-07-01T11:59:46;21.70;99.90
52459;DHT22;38372;52.902;6.024;2022-07-01T12:02:14;22.00;99.90
52459;DHT22;38372;52.902;6.024;2022-07-01T12:04:42;22.00;99.90
52459;DHT22;38372;52.902;6.024;2022-07-01T12:07:09;22.00;99.90
52459;DHT22;38372;52.902;6.024;2022-07-01T12:09:36;22.10;99.90
52459;DHT22;38372;52.902;6.024;2022-07-01T12:12:03;22.20;99.90
52459;DHT22;38372;52.902;6.024;2022-07-01T12:14:32;22.30;99.90
52459;DHT22;38372;52.902;6.024;2022-07-01T12:17:01;22.50;99.90
52459;DHT22;38372;52.902;6.024;2022-07-01T12:19:40;22.70;99.90
52459;DHT22;38372;52.902;6.024;2022-07-01T12:22:10;23.10;99.90
52459;DHT22;38372;52.902;6.024;2022-07-01T12:24:36;23.30;99.90
52459;DHT22;38372;52.902;6.024;2022-07-01T12:27:07;23.20;99.90
52459;DHT22;38372;52.902;6.024;2022-07-01T12:29:53;23.00;99.90
52459;DHT22;38372;52.902;6.024;2022-07-01T12:32:22;22.60;99.90
52459;DHT22;38372;52.902;6.024;2022-07-01T12:35:03;22.40;99.90
52459;DHT22;38372;52.902;6.024;2022-07-01T12:37:32;22.50;99.90
52459;DHT22;38372;52.902;6.024;2022-07-01T12:40:20;22.50;99.90
52459;DHT22;38372;52.902;6.024;2022-07-01T12:42:47;22.50;99.90
52459;DHT22;38372;52.902;6.024;2022-07-01T12:45:15;22.40;99.90
52459;DHT22;38372;52.902;6.024;2022-07-01T12:47:46;22.30;99.90
52459;DHT22;38372;52.902;6.024;2022-07-01T12:53:12;22.40;99.90
52459;DHT22;38372;52.902;6.024;2022-07-01T12:55:43;22.40;99.90
52459;DHT22;38372;52.902;6.024;2022-07-01T12:58:17;22.40;98.60
52459;DHT22;38372;52.902;6.024;2022-07-01T13:00:46;22.30;97.40
52459;DHT22;38372;52.902;6.024;2022-07-01T13:03:12;22.10;98.30
52459;DHT22;38372;52.902;6.024;2022-07-01T13:05:39;22.10;98.40
52459;DHT22;38372;52.902;6.024;2022-07-01T13:08:06;22.10;98.90
52459;DHT22;38372;52.902;6.024;2022-07-01T13:10:33;22.10;98.00
52459;DHT22;38372;52.902;6.024;2022-07-01T13:12:59;22.20;98.70
52459;DHT22;38372;52.902;6.024;2022-07-01T13:15:25;22.30;98.30
52459;DHT22;38372;52.902;6.024;2022-07-01T13:17:51;22.50;97.10
52459;DHT22;38372;52.902;6.024;2022-07-01T13:20:17;22.50;96.50
52459;DHT22;38372;52.902;6.024;2022-07-01T13:22:44;22.40;96.20
52459;DHT22;38372;52.902;6.024;2022-07-01T13:25:11;22.40;96.40
52459;DHT22;38372;52.902;6.024;2022-07-01T13:27:37;22.50;96.80
52459;DHT22;38372;52.902;6.024;2022-07-01T13:30:05;22.40;95.80
52459;DHT22;38372;52.902;6.024;2022-07-01T13:32:31;22.10;95.00
52459;DHT22;38372;52.902;6.024;2022-07-01T13:34:57;21.80;95.20
52459;DHT22;38372;52.902;6.024;2022-07-01T13:37:23;21.60;96.60
52459;DHT22;38372;52.902;6.024;2022-07-01T13:39:49;21.60;96.30
52459;DHT22;38372;52.902;6.024;2022-07-01T13:42:15;21.70;96.70
52459;DHT22;38372;52.902;6.024;2022-07-01T13:44:41;21.90;97.10
52459;DHT22;38372;52.902;6.024;2022-07-01T13:47:06;22.00;97.50
52459;DHT22;38372;52.902;6.024;2022-07-01T13:49:36;22.20;97.10
52459;DHT22;38372;52.902;6.024;2022-07-01T13:52:01;22.30;96.30
52459;DHT22;38372;52.902;6.024;2022-07-01T13:54:27;22.40;96.30
52459;DHT22;38372;52.902;6.024;2022-07-01T13:56:53;22.60;96.00
52459;DHT22;38372;52.902;6.024;2022-07-01T13:59:19;22.60;94.20
52459;DHT22;38372;52.902;6.024;2022-07-01T14:01:45;22.30;95.60
52459;DHT22;38372;52.902;6.024;2022-07-01T14:04:11;22.10;95.70
52459;DHT22;38372;52.902;6.024;2022-07-01T14:06:38;22.20;95.70
52459;DHT22;38372;52.902;6.024;2022-07-01T14:09:03;22.10;95.10
52459;DHT22;38372;52.902;6.024;2022-07-01T14:11:29;21.90;95.30
52459;DHT22;38372;52.902;6.024;2022-07-01T14:13:55;21.60;96.00
52459;DHT22;38372;52.902;6.024;2022-07-01T14:16:21;21.60;97.30
52459;DHT22;38372;52.902;6.024;2022-07-01T14:18:47;21.60;97.90
52459;DHT22;38372;52.902;6.024;2022-07-01T14:21:13;21.70;97.80
52459;DHT22;38372;52.902;6.024;2022-07-01T14:23:39;21.70;97.80
52459;DHT22;38372;52.902;6.024;2022-07-01T14:26:05;21.70;97.80
52459;DHT22;38372;52.902;6.024;2022-07-01T14:28:30;21.60;97.50
52459;DHT22;38372;52.902;6.024;2022-07-01T14:30:56;21.70;97.10
52459;DHT22;38372;52.902;6.024;2022-07-01T14:33:23;21.90;97.40
52459;DHT22;38372;52.902;6.024;2022-07-01T14:35:52;22.20;95.90
52459;DHT22;38372;52.902;6.024;2022-07-01T14:38:17;22.40;95.20
52459;DHT22;38372;52.902;6.024;2022-07-01T14:40:43;22.40;94.60
52459;DHT22;38372;52.902;6.024;2022-07-01T14:43:09;22.30;94.90
52459;DHT22;38372;52.902;6.024;2022-07-01T14:45:35;21.90;94.60
52459;DHT22;38372;52.902;6.024;2022-07-01T14:48:01;21.70;94.90
52459;DHT22;38372;52.902;6.024;2022-07-01T14:50:27;21.40;96.20
52459;DHT22;38372;52.902;6.024;2022-07-01T14:52:53;21.40;97.10
52459;DHT22;38372;52.902;6.024;2022-07-01T14:55:19;21.50;97.10
52459;DHT22;38372;52.902;6.024;2022-07-01T14:57:45;21.50;96.60
52459;DHT22;38372;52.902;6.024;2022-07-01T15:00:11;21.60;96.80
52459;DHT22;38372;52.902;6.024;2022-07-01T15:02:38;21.50;97.20
52459;DHT22;38372;52.902;6.024;2022-07-01T15:05:04;21.30;97.20
52459;DHT22;38372;52.902;6.024;2022-07-01T15:07:30;21.30;96.70
52459;DHT22;38372;52.902;6.024;2022-07-01T15:09:56;21.20;96.50
52459;DHT22;38372;52.902;6.024;2022-07-01T15:12:25;21.10;96.90
52459;DHT22;38372;52.902;6.024;2022-07-01T15:14:51;21.30;97.30
52459;DHT22;38372;52.902;6.024;2022-07-01T15:17:17;21.30;96.80
52459;DHT22;38372;52.902;6.024;2022-07-01T15:19:43;21.20;96.20
52459;DHT22;38372;52.902;6.024;2022-07-01T15:22:09;21.20;96.70
52459;DHT22;38372;52.902;6.024;2022-07-01T15:24:35;21.20;96.60
52459;DHT22;38372;52.902;6.024;2022-07-01T15:27:02;21.10;97.00
52459;DHT22;38372;52.902;6.024;2022-07-01T15:29:28;21.10;97.40
52459;DHT22;38372;52.902;6.024;2022-07-01T15:31:55;20.90;96.70
52459;DHT22;38372;52.902;6.024;2022-07-01T15:34:22;20.70;96.30
52459;DHT22;38372;52.902;6.024;2022-07-01T15:36:48;20.40;96.30
52459;DHT22;38372;52.902;6.024;2022-07-01T15:39:14;20.20;96.90
52459;DHT22;38372;52.902;6.024;2022-07-01T15:41:42;20.20;98.20
52459;DHT22;38372;52.902;6.024;2022-07-01T15:44:09;20.30;99.10
52459;DHT22;38372;52.902;6.024;2022-07-01T15:46:35;20.40;99.30
52459;DHT22;38372;52.902;6.024;2022-07-01T15:49:02;20.30;98.40
52459;DHT22;38372;52.902;6.024;2022-07-01T15:51:28;20.20;98.30
52459;DHT22;38372;52.902;6.024;2022-07-01T15:53:57;20.10;99.20
52459;DHT22;38372;52.902;6.024;2022-07-01T15:56:26;20.20;99.70
52459;DHT22;38372;52.902;6.024;2022-07-01T15:58:52;20.30;99.90
52459;DHT22;38372;52.902;6.024;2022-07-01T16:01:18;20.40;99.90
52459;DHT22;38372;52.902;6.024;2022-07-01T16:03:47;20.40;99.90
52459;DHT22;38372;52.902;6.024;2022-07-01T16:06:15;20.30;99.00
52459;DHT22;38372;52.902;6.024;2022-07-01T16:08:45;20.10;98.90
52459;DHT22;38372;52.902;6.024;2022-07-01T16:11:15;20.00;99.20
52459;DHT22;38372;52.902;6.024;2022-07-01T16:13:51;19.90;99.90